Ship Status Report: callsign BAREU51

sailwx.info

Track history (hours):
 
Tides and Currents Weather Stations Pressure Air Temp Water Temp Dewpoint Dewpoint Depression Visibility Wind Speed Wind Dir Waves Ship Positions

Callsign BAREU51 (name unknown)

Last reported at 2017-Mar-25 14:00 UTC. Time now 2017-Mar-25 15:32 UTC.
Position N 44°18' E 009°00'.

Date/timePositionNaut miles runAvg speedWind from/ knotsBaromVisibWave heightAir tempDewpointWater temp
2017-Mar-25 14:00N 44°18' E 009°00'2020.0
2017-Mar-25 13:00N 44°00' E 009°12'2222.2
2017-Mar-25 12:00N 43°42' E 009°30'2222.2
2017-Mar-25 11:00N 43°24' E 009°48'2625.5
2017-Mar-25 10:00N 43°00' E 010°00'1918.5
2017-Mar-25 09:00N 42°42' E 010°06'2525.2
2017-Mar-25 08:00N 42°24' E 010°30'2020.1
2017-Mar-25 07:00N 42°06' E 010°42'2222.4
2017-Mar-25 06:00N 41°48' E 011°00'2625.6
2017-Mar-25 05:00N 41°24' E 011°12'2827.6
2017-Mar-25 04:00N 41°00' E 011°30'2625.7
2017-Mar-25 03:00N 40°36' E 011°42'2322.6
2017-Mar-25 02:00N 40°18' E 012°00'2827.7
2017-Mar-25 01:00N 39°54' E 012°18'2625.7
2017-Mar-25 00:00N 39°30' E 012°30'2827.7
2017-Mar-24 23:00N 39°06' E 012°48'2827.8
2017-Mar-24 22:00N 38°42' E 013°06'2827.8
2017-Mar-24 21:00N 38°18' E 013°24'12 2.4
2017-Mar-24 16:00N 38°06' E 013°24'2625.8
2017-Mar-24 15:00N 38°30' E 013°12'2020.3
2017-Mar-24 14:00N 38°48' E 013°00'2322.8
2017-Mar-24 13:00N 39°06' E 012°42'2322.8
2017-Mar-24 12:00N 39°24' E 012°24'2020.2
2017-Mar-24 11:00N 39°42' E 012°12'2322.7
2017-Mar-24 10:00N 40°00' E 011°54'2827.7
2017-Mar-24 09:00N 40°24' E 011°36'2827.6
2017-Mar-24 08:00N 40°48' E 011°18'3030.1
2017-Mar-24 07:00N 41°12' E 010°54'2827.5
2017-Mar-24 06:00N 41°36' E 010°36'2222.5
2017-Mar-24 05:00N 41°54' E 010°18'2727.5
2017-Mar-24 04:00N 42°18' E 010°00'3030.0
2017-Mar-24 03:00N 42°48' E 010°00'2424.4
2017-Mar-24 02:00N 43°12' E 009°54'2727.3
2017-Mar-24 01:00N 43°36' E 009°36'2727.3
2017-Mar-24 00:00N 44°00' E 009°18'2222.2
2017-Mar-23 23:00N 44°18' E 009°00'7 1.5
2017-Mar-23 18:00N 44°24' E 008°54'7 7.4
2017-Mar-23 17:00N 44°18' E 009°00'2020.0
2017-Mar-23 16:00N 44°00' E 009°12'2222.2
2017-Mar-23 15:00N 43°42' E 009°30'2727.3
2017-Mar-23 14:00N 43°18' E 009°48'2020.0
2017-Mar-23 13:00N 43°00' E 010°00'2020.0
2017-Mar-23 12:00N 42°42' E 010°12'2222.4
2017-Mar-23 11:00N 42°24' E 010°30'2222.4
2017-Mar-23 10:00N 42°06' E 010°48'2625.6
2017-Mar-23 09:00N 41°42' E 011°00'2020.1
2017-Mar-23 08:00N 41°24' E 011°12'2625.6
2017-Mar-23 07:00N 41°00' E 011°24'2322.6
2017-Mar-23 06:00N 40°42' E 011°42'2827.6
2017-Mar-23 05:00N 40°18' E 012°00'2827.7
2017-Mar-23 04:00N 39°54' E 012°18'2625.7
2017-Mar-23 03:00N 39°30' E 012°30'2827.7
2017-Mar-23 02:00N 39°06' E 012°48'2625.8
2017-Mar-23 01:00N 38°42' E 013°00'3030.5
2017-Mar-23 00:00N 38°18' E 013°24'12 2.0
2017-Mar-22 18:00N 38°06' E 013°24'2625.8
2017-Mar-22 17:00N 38°30' E 013°12'2827.8
2017-Mar-22 16:00N 38°54' E 012°54'2827.8
2017-Mar-22 15:00N 39°18' E 012°36'2322.7
2017-Mar-22 14:00N 39°36' E 012°18'2322.7
2017-Mar-22 13:00N 39°54' E 012°00'2322.7
2017-Mar-22 12:00N 40°12' E 011°42'2625.7
2017-Mar-22 11:00N 40°36' E 011°30'2322.6
2017-Mar-22 10:00N 40°54' E 011°12'2322.5
2017-Mar-22 09:00N 41°12' E 010°54'2020.1
2017-Mar-22 08:00N 41°30' E 010°42'2222.5
2017-Mar-22 07:00N 41°48' E 010°24'2727.5
2017-Mar-22 06:00N 42°12' E 010°06'2020.1
2017-Mar-22 05:00N 42°30' E 009°54'2424.4
2017-Mar-22 04:00N 42°54' E 010°00'1918.5
2017-Mar-22 03:00N 43°12' E 009°54'2020.0
2017-Mar-22 02:00N 43°30' E 009°42'2222.2
2017-Mar-22 01:00N 43°48' E 009°24'2020.0
2017-Mar-22 00:00N 44°06' E 009°12'2222.1
2017-Mar-21 23:00N 44°24' E 008°54'0 0.0
2017-Mar-21 20:00N 44°24' E 008°54'0 0.0
2017-Mar-21 18:00N 44°24' E 008°54'1514.8
2017-Mar-21 17:00N 44°12' E 009°06'2020.0
2017-Mar-21 16:00N 43°54' E 009°18'2222.2
2017-Mar-21 15:00N 43°36' E 009°36'2727.3
2017-Mar-21 14:00N 43°12' E 009°54'1918.5
2017-Mar-21 13:00N 42°54' E 010°00'2222.3
2017-Mar-21 12:00N 42°36' E 010°18'2222.4
2017-Mar-21 11:00N 42°18' E 010°36'2222.4
2017-Mar-21 10:00N 42°00' E 010°54'2625.6
2017-Mar-21 09:00N 41°36' E 011°06'2020.1
2017-Mar-21 08:00N 41°18' E 011°18'2020.1
2017-Mar-21 07:00N 41°00' E 011°30'2827.6
2017-Mar-21 06:00N 40°36' E 011°48'2625.7
2017-Mar-21 05:00N 40°12' E 012°00'2827.7
2017-Mar-21 04:00N 39°48' E 012°18'2625.7
2017-Mar-21 03:00N 39°24' E 012°30'2827.8
2017-Mar-21 02:00N 39°00' E 012°48'2827.8
2017-Mar-21 01:00N 38°36' E 013°06'2322.9
2017-Mar-21 00:00N 38°18' E 013°24'12 3.0
2017-Mar-20 20:00N 38°06' E 013°24'6 6.0
2017-Mar-20 19:00N 38°12' E 013°24'2019.8
2017-Mar-20 18:00N 38°18' E 013°00'2424.3
2017-Mar-20 17:00N 38°12' E 012°30'2424.3
2017-Mar-20 16:00N 38°06' E 012°00'2424.5
2017-Mar-20 15:00N 37°42' E 012°06'2323.0
2017-Mar-20 14:00N 37°24' E 012°24'3130.7
2017-Mar-20 13:00N 37°00' E 012°48'2626.3
2017-Mar-20 12:00N 36°42' E 013°12'2626.4
2017-Mar-20 11:00N 36°24' E 013°36'2626.4
2017-Mar-20 10:00N 36°06' E 014°00'2626.5
2017-Mar-20 09:00N 35°48' E 014°24'5 1.2
2017-Mar-20 05:00N 35°48' E 014°30'5 4.9
2017-Mar-20 04:00N 35°48' E 014°24'2322.8
2017-Mar-20 03:00N 36°00' E 014°00'2323.1
2017-Mar-20 02:00N 36°18' E 013°42'2323.1
2017-Mar-20 01:00N 36°36' E 013°24'2323.1
2017-Mar-20 00:00N 36°54' E 013°06'2322.6
2017-Mar-19 23:00N 37°06' E 012°42'2323.0
2017-Mar-19 22:00N 37°24' E 012°24'2323.0
2017-Mar-19 21:00N 37°42' E 012°06'2625.8
2017-Mar-19 20:00N 38°06' E 011°54'2928.9
2017-Mar-19 19:00N 38°12' E 012°30'2928.9
2017-Mar-19 18:00N 38°18' E 013°06'1918.5
2017-Mar-19 17:00N 38°06' E 013°24'0 0.0
2017-Mar-19 15:00N 38°06' E 013°24'6 3.0
2017-Mar-19 13:00N 38°12' E 013°24'2020.3
2017-Mar-19 12:00N 38°30' E 013°12'3030.4
2017-Mar-19 11:00N 38°54' E 012°48'2827.8
2017-Mar-19 10:00N 39°18' E 012°30'2625.8
2017-Mar-19 09:00N 39°36' E 012°06'2929.3
2017-Mar-19 08:00N 39°54' E 011°36'2625.7
2017-Mar-19 07:00N 40°12' E 011°12'2625.7
2017-Mar-19 06:00N 40°30' E 010°48'3030.1
2017-Mar-19 05:00N 40°54' E 010°24'2625.5
2017-Mar-19 04:00N 41°12' E 010°00'2424.0 1010.6 14.2
2017-Mar-19 03:00N 41°36' E 010°00'3030.3
2017-Mar-19 02:00N 42°06' E 009°54'2424.0
2017-Mar-19 01:00N 42°30' E 009°54'3030.3
2017-Mar-19 00:00N 43°00' E 010°00'2625.5
2017-Mar-18 23:00N 43°24' E 009°48'2727.3
2017-Mar-18 22:00N 43°48' E 009°30'2525.0
2017-Mar-18 21:00N 44°06' E 009°06'19 3.1
2017-Mar-18 15:00N 44°24' E 009°00'1312.7
2017-Mar-18 14:00N 44°12' E 009°06'2727.3
2017-Mar-18 13:00N 43°48' E 009°24'3029.6
2017-Mar-18 12:00N 43°24' E 009°48'2625.5
2017-Mar-18 11:00N 43°00' E 010°00'2727.4
2017-Mar-18 10:00N 42°36' E 010°18'2222.4
2017-Mar-18 09:00N 42°18' E 010°36'3332.8
2017-Mar-18 08:00N 41°48' E 010°54'2020.1
2017-Mar-18 07:00N 41°30' E 011°06'2020.1
2017-Mar-18 06:00N 41°12' E 011°18'2625.7
2017-Mar-18 05:00N 40°48' E 011°30'2020.2
2017-Mar-18 04:00N 40°30' E 011°42'2322.6
2017-Mar-18 03:00N 40°12' E 012°00'2625.7
2017-Mar-18 02:00N 39°48' E 012°12'2020.2
2017-Mar-18 01:00N 39°30' E 012°24'2322.8
2017-Mar-18 00:00N 39°12' E 012°42'2625.7
2017-Mar-17 23:00N 38°48' E 012°54'2322.8
2017-Mar-17 22:00N 38°30' E 013°12'2020.3
2017-Mar-17 21:00N 38°12' E 013°24'6 1.2
2017-Mar-17 16:00N 38°06' E 013°24'1918.6
2017-Mar-17 15:00N 38°24' E 013°18'2322.9
2017-Mar-17 14:00N 38°42' E 013°00'2322.8
2017-Mar-17 13:00N 39°00' E 012°42'2625.7
2017-Mar-17 12:00N 39°24' E 012°30'2322.7
2017-Mar-17 11:00N 39°42' E 012°12'2322.7
2017-Mar-17 10:00N 40°00' E 011°54'2827.7
2017-Mar-17 09:00N 40°24' E 011°36'2827.6
2017-Mar-17 08:00N 40°48' E 011°18'2827.6
2017-Mar-17 07:00N 41°12' E 011°00'3030.0
2017-Mar-17 06:00N 41°36' E 010°36'2222.5
2017-Mar-17 05:00N 41°54' E 010°18'2727.5
2017-Mar-17 04:00N 42°18' E 010°00'3030.3
2017-Mar-17 03:00N 42°48' E 009°54'2424.0
2017-Mar-17 02:00N 43°12' E 009°54'2727.3
2017-Mar-17 01:00N 43°36' E 009°36'2727.3
2017-Mar-17 00:00N 44°00' E 009°18'2727.2
2017-Mar-16 23:00N 44°24' E 009°00'0 0.0
2017-Mar-16 18:00N 44°24' E 009°00'1918.5
2017-Mar-16 17:00N 44°06' E 009°06'2525.0
2017-Mar-16 16:00N 43°48' E 009°30'2625.5
2017-Mar-16 15:00N 43°24' E 009°42'2222.3
2017-Mar-16 14:00N 43°06' E 010°00'2424.4
2017-Mar-16 13:00N 42°42' E 010°06'1817.9
2017-Mar-16 12:00N 42°30' E 010°24'2727.4
2017-Mar-16 11:00N 42°06' E 010°42'2020.1
2017-Mar-16 10:00N 41°48' E 010°54'2222.5
2017-Mar-16 09:00N 41°30' E 011°12'2625.6
2017-Mar-16 08:00N 41°06' E 011°24'2020.2
2017-Mar-16 07:00N 40°48' E 011°36'2827.6
2017-Mar-16 06:00N 40°24' E 011°54'2020.2
2017-Mar-16 05:00N 40°06' E 012°06'2020.2
2017-Mar-16 04:00N 39°48' E 012°18'2827.7
2017-Mar-16 03:00N 39°24' E 012°36'2020.3
2017-Mar-16 02:00N 39°06' E 012°48'2625.8
2017-Mar-16 01:00N 38°42' E 013°00'2322.9
2017-Mar-16 00:00N 38°24' E 013°18'19 3.1
2017-Mar-15 18:00N 38°06' E 013°24'1312.9
2017-Mar-15 17:00N 38°18' E 013°18'2625.8
2017-Mar-15 16:00N 38°42' E 013°06'2322.8
2017-Mar-15 15:00N 39°00' E 012°48'2322.8
2017-Mar-15 14:00N 39°18' E 012°30'  
Track history (hours):
 
Tides and Currents Weather Stations Pressure Air Temp Water Temp Dewpoint Dewpoint Depression Visibility Wind Speed Wind Dir Waves Ship Positions

Callsign BAREU51 (name unknown)

Last reported at 2017-Mar-25 14:00 UTC. Time now 2017-Mar-25 15:32 UTC.
Position N 44°18' E 009°00'.

Date/timePositionNaut miles runAvg speedWind from/ knotsBaromVisibWave heightAir tempDewpointWater temp
2017-Mar-25 14:00N 44°18' E 009°00'2020.0
2017-Mar-25 13:00N 44°00' E 009°12'2222.2
2017-Mar-25 12:00N 43°42' E 009°30'2222.2
2017-Mar-25 11:00N 43°24' E 009°48'2625.5
2017-Mar-25 10:00N 43°00' E 010°00'1918.5
2017-Mar-25 09:00N 42°42' E 010°06'2525.2
2017-Mar-25 08:00N 42°24' E 010°30'2020.1
2017-Mar-25 07:00N 42°06' E 010°42'2222.4
2017-Mar-25 06:00N 41°48' E 011°00'2625.6
2017-Mar-25 05:00N 41°24' E 011°12'2827.6
2017-Mar-25 04:00N 41°00' E 011°30'2625.7
2017-Mar-25 03:00N 40°36' E 011°42'2322.6
2017-Mar-25 02:00N 40°18' E 012°00'2827.7
2017-Mar-25 01:00N 39°54' E 012°18'2625.7
2017-Mar-25 00:00N 39°30' E 012°30'2827.7
2017-Mar-24 23:00N 39°06' E 012°48'2827.8
2017-Mar-24 22:00N 38°42' E 013°06'2827.8
2017-Mar-24 21:00N 38°18' E 013°24'12 2.4
2017-Mar-24 16:00N 38°06' E 013°24'2625.8
2017-Mar-24 15:00N 38°30' E 013°12'2020.3
2017-Mar-24 14:00N 38°48' E 013°00'2322.8
2017-Mar-24 13:00N 39°06' E 012°42'2322.8
2017-Mar-24 12:00N 39°24' E 012°24'2020.2
2017-Mar-24 11:00N 39°42' E 012°12'2322.7
2017-Mar-24 10:00N 40°00' E 011°54'2827.7
2017-Mar-24 09:00N 40°24' E 011°36'2827.6
2017-Mar-24 08:00N 40°48' E 011°18'3030.1
2017-Mar-24 07:00N 41°12' E 010°54'2827.5
2017-Mar-24 06:00N 41°36' E 010°36'2222.5
2017-Mar-24 05:00N 41°54' E 010°18'2727.5
2017-Mar-24 04:00N 42°18' E 010°00'3030.0
2017-Mar-24 03:00N 42°48' E 010°00'2424.4
2017-Mar-24 02:00N 43°12' E 009°54'2727.3
2017-Mar-24 01:00N 43°36' E 009°36'2727.3
2017-Mar-24 00:00N 44°00' E 009°18'2222.2
2017-Mar-23 23:00N 44°18' E 009°00'7 1.5
2017-Mar-23 18:00N 44°24' E 008°54'7 7.4
2017-Mar-23 17:00N 44°18' E 009°00'2020.0
2017-Mar-23 16:00N 44°00' E 009°12'2222.2
2017-Mar-23 15:00N 43°42' E 009°30'2727.3
2017-Mar-23 14:00N 43°18' E 009°48'2020.0
2017-Mar-23 13:00N 43°00' E 010°00'2020.0
2017-Mar-23 12:00N 42°42' E 010°12'2222.4
2017-Mar-23 11:00N 42°24' E 010°30'2222.4
2017-Mar-23 10:00N 42°06' E 010°48'2625.6
2017-Mar-23 09:00N 41°42' E 011°00'2020.1
2017-Mar-23 08:00N 41°24' E 011°12'2625.6
2017-Mar-23 07:00N 41°00' E 011°24'2322.6
2017-Mar-23 06:00N 40°42' E 011°42'2827.6
2017-Mar-23 05:00N 40°18' E 012°00'2827.7
2017-Mar-23 04:00N 39°54' E 012°18'2625.7
2017-Mar-23 03:00N 39°30' E 012°30'2827.7
2017-Mar-23 02:00N 39°06' E 012°48'2625.8
2017-Mar-23 01:00N 38°42' E 013°00'3030.5
2017-Mar-23 00:00N 38°18' E 013°24'12 2.0
2017-Mar-22 18:00N 38°06' E 013°24'2625.8
2017-Mar-22 17:00N 38°30' E 013°12'2827.8
2017-Mar-22 16:00N 38°54' E 012°54'2827.8
2017-Mar-22 15:00N 39°18' E 012°36'2322.7
2017-Mar-22 14:00N 39°36' E 012°18'2322.7
2017-Mar-22 13:00N 39°54' E 012°00'2322.7
2017-Mar-22 12:00N 40°12' E 011°42'2625.7
2017-Mar-22 11:00N 40°36' E 011°30'2322.6
2017-Mar-22 10:00N 40°54' E 011°12'2322.5
2017-Mar-22 09:00N 41°12' E 010°54'2020.1
2017-Mar-22 08:00N 41°30' E 010°42'2222.5
2017-Mar-22 07:00N 41°48' E 010°24'2727.5
2017-Mar-22 06:00N 42°12' E 010°06'2020.1
2017-Mar-22 05:00N 42°30' E 009°54'2424.4
2017-Mar-22 04:00N 42°54' E 010°00'1918.5
2017-Mar-22 03:00N 43°12' E 009°54'2020.0
2017-Mar-22 02:00N 43°30' E 009°42'2222.2
2017-Mar-22 01:00N 43°48' E 009°24'2020.0
2017-Mar-22 00:00N 44°06' E 009°12'2222.1
2017-Mar-21 23:00N 44°24' E 008°54'0 0.0
2017-Mar-21 20:00N 44°24' E 008°54'0 0.0
2017-Mar-21 18:00N 44°24' E 008°54'1514.8
2017-Mar-21 17:00N 44°12' E 009°06'2020.0
2017-Mar-21 16:00N 43°54' E 009°18'2222.2
2017-Mar-21 15:00N 43°36' E 009°36'2727.3
2017-Mar-21 14:00N 43°12' E 009°54'1918.5
2017-Mar-21 13:00N 42°54' E 010°00'2222.3
2017-Mar-21 12:00N 42°36' E 010°18'2222.4
2017-Mar-21 11:00N 42°18' E 010°36'2222.4
2017-Mar-21 10:00N 42°00' E 010°54'2625.6
2017-Mar-21 09:00N 41°36' E 011°06'2020.1
2017-Mar-21 08:00N 41°18' E 011°18'2020.1
2017-Mar-21 07:00N 41°00' E 011°30'2827.6
2017-Mar-21 06:00N 40°36' E 011°48'2625.7
2017-Mar-21 05:00N 40°12' E 012°00'2827.7
2017-Mar-21 04:00N 39°48' E 012°18'2625.7
2017-Mar-21 03:00N 39°24' E 012°30'2827.8
2017-Mar-21 02:00N 39°00' E 012°48'2827.8
2017-Mar-21 01:00N 38°36' E 013°06'2322.9
2017-Mar-21 00:00N 38°18' E 013°24'12 3.0
2017-Mar-20 20:00N 38°06' E 013°24'6 6.0
2017-Mar-20 19:00N 38°12' E 013°24'2019.8
2017-Mar-20 18:00N 38°18' E 013°00'2424.3
2017-Mar-20 17:00N 38°12' E 012°30'2424.3
2017-Mar-20 16:00N 38°06' E 012°00'2424.5
2017-Mar-20 15:00N 37°42' E 012°06'2323.0
2017-Mar-20 14:00N 37°24' E 012°24'3130.7
2017-Mar-20 13:00N 37°00' E 012°48'2626.3
2017-Mar-20 12:00N 36°42' E 013°12'2626.4
2017-Mar-20 11:00N 36°24' E 013°36'2626.4
2017-Mar-20 10:00N 36°06' E 014°00'2626.5
2017-Mar-20 09:00N 35°48' E 014°24'5 1.2
2017-Mar-20 05:00N 35°48' E 014°30'5 4.9
2017-Mar-20 04:00N 35°48' E 014°24'2322.8
2017-Mar-20 03:00N 36°00' E 014°00'2323.1
2017-Mar-20 02:00N 36°18' E 013°42'2323.1
2017-Mar-20 01:00N 36°36' E 013°24'2323.1
2017-Mar-20 00:00N 36°54' E 013°06'2322.6
2017-Mar-19 23:00N 37°06' E 012°42'2323.0
2017-Mar-19 22:00N 37°24' E 012°24'2323.0
2017-Mar-19 21:00N 37°42' E 012°06'2625.8
2017-Mar-19 20:00N 38°06' E 011°54'2928.9
2017-Mar-19 19:00N 38°12' E 012°30'2928.9
2017-Mar-19 18:00N 38°18' E 013°06'1918.5
2017-Mar-19 17:00N 38°06' E 013°24'0 0.0
2017-Mar-19 15:00N 38°06' E 013°24'6 3.0
2017-Mar-19 13:00N 38°12' E 013°24'2020.3
2017-Mar-19 12:00N 38°30' E 013°12'3030.4
2017-Mar-19 11:00N 38°54' E 012°48'2827.8
2017-Mar-19 10:00N 39°18' E 012°30'2625.8
2017-Mar-19 09:00N 39°36' E 012°06'2929.3
2017-Mar-19 08:00N 39°54' E 011°36'2625.7
2017-Mar-19 07:00N 40°12' E 011°12'2625.7
2017-Mar-19 06:00N 40°30' E 010°48'3030.1
2017-Mar-19 05:00N 40°54' E 010°24'2625.5
2017-Mar-19 04:00N 41°12' E 010°00'2424.0 1010.6 14.2
2017-Mar-19 03:00N 41°36' E 010°00'3030.3
2017-Mar-19 02:00N 42°06' E 009°54'2424.0
2017-Mar-19 01:00N 42°30' E 009°54'3030.3
2017-Mar-19 00:00N 43°00' E 010°00'2625.5
2017-Mar-18 23:00N 43°24' E 009°48'2727.3
2017-Mar-18 22:00N 43°48' E 009°30'2525.0
2017-Mar-18 21:00N 44°06' E 009°06'19 3.1
2017-Mar-18 15:00N 44°24' E 009°00'1312.7
2017-Mar-18 14:00N 44°12' E 009°06'2727.3
2017-Mar-18 13:00N 43°48' E 009°24'3029.6
2017-Mar-18 12:00N 43°24' E 009°48'2625.5
2017-Mar-18 11:00N 43°00' E 010°00'2727.4
2017-Mar-18 10:00N 42°36' E 010°18'2222.4
2017-Mar-18 09:00N 42°18' E 010°36'3332.8
2017-Mar-18 08:00N 41°48' E 010°54'2020.1
2017-Mar-18 07:00N 41°30' E 011°06'2020.1
2017-Mar-18 06:00N 41°12' E 011°18'2625.7
2017-Mar-18 05:00N 40°48' E 011°30'2020.2
2017-Mar-18 04:00N 40°30' E 011°42'2322.6
2017-Mar-18 03:00N 40°12' E 012°00'2625.7
2017-Mar-18 02:00N 39°48' E 012°12'2020.2
2017-Mar-18 01:00N 39°30' E 012°24'2322.8
2017-Mar-18 00:00N 39°12' E 012°42'2625.7
2017-Mar-17 23:00N 38°48' E 012°54'2322.8
2017-Mar-17 22:00N 38°30' E 013°12'2020.3
2017-Mar-17 21:00N 38°12' E 013°24'6 1.2
2017-Mar-17 16:00N 38°06' E 013°24'1918.6
2017-Mar-17 15:00N 38°24' E 013°18'2322.9
2017-Mar-17 14:00N 38°42' E 013°00'2322.8
2017-Mar-17 13:00N 39°00' E 012°42'2625.7
2017-Mar-17 12:00N 39°24' E 012°30'2322.7
2017-Mar-17 11:00N 39°42' E 012°12'2322.7
2017-Mar-17 10:00N 40°00' E 011°54'2827.7
2017-Mar-17 09:00N 40°24' E 011°36'2827.6
2017-Mar-17 08:00N 40°48' E 011°18'2827.6
2017-Mar-17 07:00N 41°12' E 011°00'3030.0
2017-Mar-17 06:00N 41°36' E 010°36'2222.5
2017-Mar-17 05:00N 41°54' E 010°18'2727.5
2017-Mar-17 04:00N 42°18' E 010°00'3030.3
2017-Mar-17 03:00N 42°48' E 009°54'2424.0
2017-Mar-17 02:00N 43°12' E 009°54'2727.3
2017-Mar-17 01:00N 43°36' E 009°36'2727.3
2017-Mar-17 00:00N 44°00' E 009°18'2727.2
2017-Mar-16 23:00N 44°24' E 009°00'0 0.0
2017-Mar-16 18:00N 44°24' E 009°00'1918.5
2017-Mar-16 17:00N 44°06' E 009°06'2525.0
2017-Mar-16 16:00N 43°48' E 009°30'2625.5
2017-Mar-16 15:00N 43°24' E 009°42'2222.3
2017-Mar-16 14:00N 43°06' E 010°00'2424.4
2017-Mar-16 13:00N 42°42' E 010°06'1817.9
2017-Mar-16 12:00N 42°30' E 010°24'2727.4
2017-Mar-16 11:00N 42°06' E 010°42'2020.1
2017-Mar-16 10:00N 41°48' E 010°54'2222.5
2017-Mar-16 09:00N 41°30' E 011°12'2625.6
2017-Mar-16 08:00N 41°06' E 011°24'2020.2
2017-Mar-16 07:00N 40°48' E 011°36'2827.6
2017-Mar-16 06:00N 40°24' E 011°54'2020.2
2017-Mar-16 05:00N 40°06' E 012°06'2020.2
2017-Mar-16 04:00N 39°48' E 012°18'2827.7
2017-Mar-16 03:00N 39°24' E 012°36'2020.3
2017-Mar-16 02:00N 39°06' E 012°48'2625.8
2017-Mar-16 01:00N 38°42' E 013°00'2322.9
2017-Mar-16 00:00N 38°24' E 013°18'19 3.1
2017-Mar-15 18:00N 38°06' E 013°24'1312.9
2017-Mar-15 17:00N 38°18' E 013°18'2625.8
2017-Mar-15 16:00N 38°42' E 013°06'2322.8
2017-Mar-15 15:00N 39°00' E 012°48'2322.8
2017-Mar-15 14:00N 39°18' E 012°30'  

Dump ship's entire track history